createdAt,value
2022-10-09T05:17:01.327Z,5.60
2022-10-09T05:19:27.934Z,5.60
2022-10-09T05:21:57.611Z,5.60
2022-10-09T05:24:25.782Z,5.60
2022-10-09T05:26:53.941Z,5.50
2022-10-09T05:31:50.757Z,5.50
2022-10-09T05:34:18.943Z,5.50
2022-10-09T05:39:17.744Z,5.40
2022-10-09T05:41:45.862Z,5.40
2022-10-09T05:44:13.991Z,5.20
2022-10-09T05:49:12.142Z,5.00
2022-10-09T05:51:42.777Z,4.90
2022-10-09T05:56:42.361Z,4.80
2022-10-09T05:59:11.795Z,4.80
2022-10-09T06:01:42.167Z,4.60
2022-10-09T06:04:15.417Z,4.90
2022-10-09T06:06:44.686Z,4.90
2022-10-09T06:09:13.094Z,4.80
2022-10-09T06:11:43.830Z,4.60
2022-10-09T06:14:13.619Z,4.60
2022-10-09T06:16:43.885Z,4.70
2022-10-09T06:24:13.196Z,5.10
2022-10-09T06:26:42.892Z,5.40
2022-10-09T06:29:11.091Z,5.00
2022-10-09T06:31:39.969Z,5.30
2022-10-09T06:34:08.236Z,5.60
2022-10-09T06:39:07.976Z,5.30
2022-10-09T06:41:36.749Z,5.00
2022-10-09T06:44:11.742Z,5.00
2022-10-09T06:46:43.663Z,5.10
2022-10-09T06:49:12.534Z,5.10
2022-10-09T06:51:41.813Z,5.20
2022-10-09T06:54:14.266Z,5.30
2022-10-09T06:56:42.736Z,5.40
2022-10-09T06:59:12.978Z,5.40
2022-10-09T07:01:41.365Z,5.50
2022-10-09T07:04:13.353Z,5.60
2022-10-09T07:06:43.488Z,5.70
2022-10-09T07:09:13.481Z,5.70
2022-10-09T07:11:44.230Z,6.90
2022-10-09T07:14:15.901Z,6.00
2022-10-09T07:16:46.114Z,6.10
2022-10-09T07:19:15.709Z,6.20
2022-10-09T07:21:45.535Z,6.30
2022-10-09T07:24:14.398Z,6.60
2022-10-09T07:26:44.277Z,6.60
2022-10-09T07:29:15.883Z,6.80
2022-10-09T07:31:44.072Z,6.80
2022-10-09T07:34:12.293Z,6.90
2022-10-09T07:39:09.007Z,7.20
2022-10-09T07:41:37.185Z,8.00
2022-10-09T07:44:05.459Z,7.40
2022-10-09T07:46:35.019Z,7.40
2022-10-09T07:49:03.460Z,7.70
2022-10-09T07:51:32.186Z,7.50
2022-10-09T07:56:31.692Z,8.00
2022-10-09T07:59:01.429Z,8.20
2022-10-09T08:01:30.786Z,8.10
2022-10-09T08:04:01.112Z,8.50
2022-10-09T08:06:29.869Z,8.30
2022-10-09T08:09:00.115Z,8.70
2022-10-09T08:11:29.811Z,8.80
2022-10-09T08:13:58.519Z,8.90
2022-10-09T08:19:01.004Z,9.10
2022-10-09T08:21:32.876Z,9.10
